createdAt,value
2019-01-20T00:01:15.790Z,3.70
2019-01-20T00:03:46.207Z,3.59
2019-01-20T00:06:16.564Z,3.72
2019-01-20T00:08:46.559Z,3.63
2019-01-20T00:11:16.952Z,3.65
2019-01-20T00:13:47.450Z,3.69
2019-01-20T00:16:17.552Z,3.68
2019-01-20T00:18:47.849Z,3.42
2019-01-20T00:21:17.800Z,3.63
2019-01-20T00:23:47.727Z,3.38
2019-01-20T00:26:17.773Z,3.38
2019-01-20T00:28:48.005Z,3.37
2019-01-20T00:31:17.983Z,3.37
2019-01-20T00:33:48.754Z,2.95
2019-01-20T00:36:18.685Z,3.33
2019-01-20T00:38:48.679Z,3.41
2019-01-20T00:41:23.962Z,3.28
2019-01-20T00:43:50.769Z,3.42
2019-01-20T00:46:20.685Z,3.30
2019-01-20T00:48:50.712Z,3.26
2019-01-20T00:51:21.079Z,3.48
2019-01-20T00:53:51.726Z,3.32
2019-01-20T00:56:21.640Z,3.26
2019-01-20T00:58:52.206Z,3.11
2019-01-20T01:01:22.797Z,2.99
2019-01-20T01:03:53.900Z,3.12
2019-01-20T01:06:24.068Z,2.80
2019-01-20T01:08:53.944Z,2.94
2019-01-20T01:11:31.391Z,2.97
2019-01-20T01:13:56.683Z,3.12
2019-01-20T01:16:26.806Z,3.10
2019-01-20T01:21:26.092Z,3.05
2019-01-20T01:23:56.324Z,2.91
2019-01-20T01:26:26.410Z,2.85
2019-01-20T01:28:56.390Z,3.09
2019-01-20T01:31:26.535Z,3.13
2019-01-20T01:33:56.775Z,2.94
2019-01-20T01:36:27.354Z,3.00
2019-01-20T01:38:57.214Z,2.92
2019-01-20T01:41:27.255Z,3.21
2019-01-20T01:43:57.184Z,3.10
2019-01-20T01:46:27.052Z,3.02
2019-01-20T01:48:56.936Z,2.87
2019-01-20T01:51:27.073Z,2.64
2019-01-20T01:53:56.952Z,3.12
2019-01-20T01:56:26.886Z,2.90
2019-01-20T01:58:56.832Z,3.08
2019-01-20T02:01:26.983Z,2.77
2019-01-20T02:03:56.943Z,3.04
2019-01-20T02:06:27.054Z,3.07
2019-01-20T02:08:58.132Z,3.25
2019-01-20T02:11:27.996Z,2.82
2019-01-20T02:13:57.919Z,2.36
2019-01-20T02:16:28.141Z,3.05
2019-01-20T02:18:58.414Z,2.94
2019-01-20T02:21:28.276Z,3.08
2019-01-20T02:23:58.193Z,2.93
2019-01-20T02:26:28.349Z,2.84
2019-01-20T02:28:58.246Z,2.73
2019-01-20T02:31:28.895Z,2.71
2019-01-20T02:33:59.955Z,2.79
2019-01-20T02:36:30.133Z,2.78
2019-01-20T02:39:00.115Z,2.70
2019-01-20T02:41:30.313Z,2.70
2019-01-20T02:44:00.312Z,2.67
2019-01-20T02:46:30.220Z,2.68
2019-01-20T02:49:00.400Z,2.63
2019-01-20T02:51:30.908Z,2.56
2019-01-20T02:54:00.762Z,2.60
2019-01-20T02:56:30.681Z,2.56
2019-01-20T02:59:00.553Z,2.64
2019-01-20T03:01:30.697Z,2.71
2019-01-20T03:04:00.820Z,2.64
2019-01-20T03:06:30.687Z,2.56
2019-01-20T03:09:00.554Z,2.58
2019-01-20T03:11:30.472Z,2.46
2019-01-20T03:14:00.531Z,2.43
2019-01-20T03:16:30.735Z,2.52
2019-01-20T03:19:01.166Z,2.48
2019-01-20T03:21:31.043Z,2.42
2019-01-20T03:26:21.132Z,2.43
2019-01-20T03:28:51.174Z,2.33
2019-01-20T03:31:21.062Z,2.24
2019-01-20T03:33:50.941Z,2.35
2019-01-20T03:36:20.829Z,2.24
2019-01-20T03:38:50.706Z,2.32
2019-01-20T03:41:20.605Z,2.31
2019-01-20T03:43:50.535Z,2.30
2019-01-20T03:46:20.744Z,2.19
2019-01-20T03:48:50.610Z,2.18
2019-01-20T03:51:20.539Z,2.29
2019-01-20T03:53:50.701Z,2.19
2019-01-20T03:56:20.574Z,2.17
2019-01-20T03:58:50.514Z,2.17
2019-01-20T04:01:20.894Z,2.15
2019-01-20T04:03:50.762Z,2.13
2019-01-20T04:06:20.675Z,1.88
2019-01-20T04:08:50.635Z,2.15
2019-01-20T04:11:20.837Z,2.22
2019-01-20T04:13:50.815Z,2.19
2019-01-20T04:16:20.822Z,2.14
2019-01-20T04:18:50.920Z,1.14
2019-01-20T04:21:20.818Z,1.28
2019-01-20T04:23:50.710Z,1.87
2019-01-20T04:26:20.621Z,1.81
2019-01-20T04:28:50.806Z,1.81
2019-01-20T04:31:20.672Z,1.90
2019-01-20T04:33:50.551Z,1.87
2019-01-20T04:36:20.723Z,1.51
2019-01-20T04:38:50.592Z,1.91
2019-01-20T04:41:21.060Z,2.02
2019-01-20T04:43:50.938Z,2.05
2019-01-20T04:46:20.947Z,1.98
2019-01-20T04:48:50.879Z,1.90
2019-01-20T04:51:21.041Z,1.41
2019-01-20T04:53:51.590Z,1.68
2019-01-20T04:56:21.448Z,1.68
2019-01-20T04:58:51.591Z,1.73
2019-01-20T05:01:21.466Z,1.77
2019-01-20T05:03:51.344Z,1.80
2019-01-20T05:06:21.215Z,1.88
2019-01-20T05:08:51.447Z,1.51
2019-01-20T05:11:21.529Z,1.73
2019-01-20T05:13:51.654Z,1.85
2019-01-20T05:16:21.528Z,1.65
2019-01-20T05:18:51.404Z,1.61
2019-01-20T05:21:21.282Z,1.52
2019-01-20T05:23:51.116Z,1.68
2019-01-20T05:26:20.986Z,1.52
2019-01-20T05:28:51.103Z,1.62
2019-01-20T05:31:21.278Z,1.52
2019-01-20T05:33:51.117Z,1.64
2019-01-20T05:36:21.220Z,1.75
2019-01-20T05:38:51.079Z,1.68
2019-01-20T05:41:20.952Z,1.69
2019-01-20T05:43:50.888Z,1.70
2019-01-20T05:46:20.754Z,1.69
2019-01-20T05:48:50.657Z,1.57
2019-01-20T05:51:20.512Z,1.30
2019-01-20T05:53:50.384Z,1.46
2019-01-20T05:56:20.307Z,1.42
2019-01-20T05:58:50.187Z,1.56
2019-01-20T06:01:20.062Z,1.53
2019-01-20T06:03:50.056Z,1.70
2019-01-20T06:06:19.927Z,1.64
2019-01-20T06:08:49.797Z,1.65
2019-01-20T06:11:19.707Z,1.43
2019-01-20T06:13:49.612Z,1.37
2019-01-20T06:16:19.741Z,1.51
2019-01-20T06:18:49.625Z,1.29
2019-01-20T06:21:19.837Z,1.48
2019-01-20T06:23:49.714Z,1.21
2019-01-20T06:26:19.611Z,1.46
2019-01-20T06:28:49.539Z,1.53
2019-01-20T06:31:19.882Z,1.37
2019-01-20T06:33:49.762Z,1.41
2019-01-20T06:36:19.639Z,1.35
2019-01-20T06:38:50.161Z,1.19
2019-01-20T06:41:20.038Z,1.37
2019-01-20T06:43:49.914Z,1.51
2019-01-20T06:46:19.770Z,1.49
2019-01-20T06:48:49.651Z,1.45
2019-01-20T06:51:20.361Z,1.41
2019-01-20T06:53:50.238Z,1.27
2019-01-20T06:56:20.375Z,0.91
2019-01-20T06:58:50.275Z,0.70
2019-01-20T07:01:20.142Z,0.58
2019-01-20T07:03:50.016Z,0.90
2019-01-20T07:06:19.936Z,0.79
2019-01-20T07:08:49.903Z,0.83
2019-01-20T07:11:19.826Z,0.95
2019-01-20T07:13:49.713Z,0.82
2019-01-20T07:16:19.594Z,1.07
2019-01-20T07:18:49.602Z,0.86
2019-01-20T07:21:19.554Z,0.94
2019-01-20T07:23:49.744Z,1.03
2019-01-20T07:26:19.607Z,1.30
2019-01-20T07:28:50.281Z,1.22
2019-01-20T07:31:20.724Z,1.29
2019-01-20T07:33:50.590Z,0.65
2019-01-20T07:36:20.690Z,0.95
2019-01-20T07:38:50.577Z,1.12
2019-01-20T07:41:20.422Z,1.26
2019-01-20T07:43:50.781Z,1.17
2019-01-20T07:46:20.674Z,1.06
2019-01-20T07:48:50.876Z,1.40
2019-01-20T07:51:21.220Z,0.83
2019-01-20T07:53:51.092Z,1.09
2019-01-20T07:56:20.961Z,0.94
2019-01-20T07:58:50.856Z,0.92
2019-01-20T08:01:20.759Z,0.86
2019-01-20T08:03:50.669Z,0.85
2019-01-20T08:06:20.553Z,1.40
2019-01-20T08:08:50.589Z,1.34
2019-01-20T08:11:20.704Z,1.07
2019-01-20T08:13:50.578Z,0.78
2019-01-20T08:16:20.741Z,0.79
2019-01-20T08:18:50.833Z,0.67
2019-01-20T08:21:20.713Z,0.66
2019-01-20T08:23:50.644Z,0.91
2019-01-20T08:26:20.529Z,1.00
2019-01-20T08:28:50.473Z,1.28
2019-01-20T08:31:20.393Z,1.58
2019-01-20T08:33:50.343Z,1.52
2019-01-20T08:36:20.460Z,0.91
2019-01-20T08:38:50.716Z,0.57
2019-01-20T08:41:20.567Z,0.96
2019-01-20T08:43:50.521Z,0.96
2019-01-20T08:46:54.284Z,0.20
2019-01-20T08:49:24.159Z,0.34
2019-01-20T08:51:54.011Z,1.40
2019-01-20T08:54:23.918Z,1.36
2019-01-20T08:56:53.821Z,1.28
2019-01-20T08:59:23.754Z,0.75
2019-01-20T09:01:53.704Z,0.67
2019-01-20T09:04:23.928Z,0.64
2019-01-20T09:06:53.804Z,0.92
2019-01-20T09:09:23.705Z,0.62
2019-01-20T09:11:54.548Z,0.11
2019-01-20T09:14:25.113Z,0.01
2019-01-20T09:16:55.051Z,1.13
2019-01-20T09:19:24.962Z,1.27
2019-01-20T09:21:54.878Z,1.67
2019-01-20T09:24:24.781Z,1.84
2019-01-20T09:26:54.889Z,1.99
2019-01-20T09:29:25.023Z,1.53
2019-01-20T09:31:55.412Z,1.85
2019-01-20T09:34:25.273Z,1.46
2019-01-20T09:36:55.432Z,1.62
2019-01-20T09:39:25.278Z,1.66
2019-01-20T09:41:55.244Z,1.60
2019-01-20T09:44:25.345Z,1.89
2019-01-20T09:46:55.357Z,1.38
2019-01-20T09:49:25.654Z,1.93
2019-01-20T09:51:55.519Z,1.88
2019-01-20T09:54:25.385Z,1.87
2019-01-20T09:56:55.264Z,1.79
2019-01-20T09:59:25.118Z,1.59
2019-01-20T10:01:54.988Z,1.50
2019-01-20T10:04:24.969Z,0.90
2019-01-20T10:06:54.839Z,0.43
2019-01-20T10:09:24.727Z,0.73
2019-01-20T10:11:54.616Z,0.86
2019-01-20T10:14:24.556Z,1.03
2019-01-20T10:16:54.511Z,2.24
2019-01-20T10:19:24.747Z,1.63
2019-01-20T10:21:54.615Z,1.08
2019-01-20T10:24:24.479Z,1.34
2019-01-20T10:26:54.374Z,1.87
2019-01-20T10:29:25.075Z,1.76
2019-01-20T10:31:54.942Z,2.49
2019-01-20T10:34:24.877Z,1.31
2019-01-20T10:36:55.842Z,1.12
2019-01-20T10:39:25.704Z,1.77
2019-01-20T10:41:56.014Z,2.01
2019-01-20T10:44:25.893Z,2.67
2019-01-20T10:46:55.835Z,2.49
2019-01-20T10:49:25.779Z,2.13
2019-01-20T10:51:55.718Z,1.90
2019-01-20T10:54:25.763Z,2.67
2019-01-20T10:56:55.732Z,2.32
2019-01-20T10:59:25.609Z,2.10
2019-01-20T11:01:55.713Z,2.50
2019-01-20T11:04:25.580Z,2.41
2019-01-20T11:06:55.588Z,3.02
2019-01-20T11:09:25.530Z,2.99
2019-01-20T11:11:55.443Z,3.30
2019-01-20T11:14:25.604Z,2.96
2019-01-20T11:16:55.476Z,3.46
2019-01-20T11:19:25.444Z,2.42
2019-01-20T11:21:55.605Z,2.74
2019-01-20T11:24:25.463Z,3.25
2019-01-20T11:26:55.397Z,3.31
2019-01-20T11:29:25.336Z,3.52
2019-01-20T11:31:55.285Z,3.70
2019-01-20T11:34:25.215Z,3.38
2019-01-20T11:36:55.203Z,3.29
2019-01-20T11:39:25.077Z,2.63
2019-01-20T11:41:54.951Z,2.45
2019-01-20T11:44:24.834Z,2.80
2019-01-20T11:46:55.022Z,3.07
2019-01-20T11:49:25.183Z,3.74
2019-01-20T11:51:55.101Z,3.83
2019-01-20T11:54:24.959Z,3.70
2019-01-20T11:56:55.535Z,3.71
2019-01-20T11:59:25.490Z,3.28
2019-01-20T12:01:57.388Z,3.34
2019-01-20T12:04:29.220Z,3.77
2019-01-20T12:07:01.305Z,3.91
2019-01-20T12:09:33.056Z,3.68
2019-01-20T12:12:03.036Z,4.07
2019-01-20T12:14:35.410Z,4.04
2019-01-20T12:17:06.929Z,4.10
2019-01-20T12:19:41.057Z,3.50
2019-01-20T12:22:11.139Z,3.44
2019-01-20T12:24:42.130Z,3.20
2019-01-20T12:27:12.158Z,3.40
2019-01-20T12:29:42.041Z,3.90
2019-01-20T12:32:11.988Z,4.11
2019-01-20T12:34:41.856Z,2.87
2019-01-20T12:37:11.992Z,2.99
2019-01-20T12:39:41.855Z,3.51
2019-01-20T12:42:12.036Z,4.06
2019-01-20T12:44:41.914Z,3.92
2019-01-20T12:47:11.772Z,3.80
2019-01-20T12:49:41.646Z,3.88
2019-01-20T12:52:11.639Z,3.89
2019-01-20T12:54:41.516Z,4.43
2019-01-20T12:57:11.775Z,4.27
2019-01-20T12:59:42.113Z,3.03
2019-01-20T13:02:11.994Z,3.13
2019-01-20T13:04:42.144Z,3.20
2019-01-20T13:07:12.220Z,2.93
2019-01-20T13:09:42.085Z,3.56
2019-01-20T13:12:11.930Z,4.06
2019-01-20T13:14:41.789Z,3.15
2019-01-20T13:17:11.894Z,2.83
2019-01-20T13:19:41.828Z,3.17
2019-01-20T13:22:11.694Z,2.36
2019-01-20T13:24:41.558Z,1.96
2019-01-20T13:27:11.446Z,2.93
2019-01-20T13:29:41.534Z,2.49
2019-01-20T13:32:11.907Z,2.87
2019-01-20T13:34:41.987Z,2.87
2019-01-20T13:37:11.834Z,2.72
2019-01-20T13:39:41.689Z,2.40
2019-01-20T13:42:11.771Z,2.42
2019-01-20T13:44:46.219Z,2.45
2019-01-20T13:47:13.562Z,2.90
2019-01-20T13:49:43.812Z,3.13
2019-01-20T13:52:13.979Z,2.62
2019-01-20T13:54:43.956Z,3.49
2019-01-20T13:57:13.894Z,2.18
2019-01-20T13:59:43.776Z,1.70
2019-01-20T14:02:13.695Z,2.05
2019-01-20T14:04:43.556Z,2.71
2019-01-20T14:07:13.569Z,2.52
2019-01-20T14:09:44.240Z,2.36
2019-01-20T14:12:14.329Z,1.86
2019-01-20T14:14:44.205Z,2.01
2019-01-20T14:17:14.077Z,1.95
2019-01-20T14:19:43.954Z,1.60
2019-01-20T14:22:13.879Z,2.30
2019-01-20T14:24:43.734Z,1.68
2019-01-20T14:27:13.599Z,1.99
2019-01-20T14:29:43.458Z,1.48
2019-01-20T14:32:13.555Z,2.06
2019-01-20T14:34:43.704Z,1.81
2019-01-20T14:37:13.520Z,2.17
2019-01-20T14:39:43.429Z,1.88
2019-01-20T14:42:15.985Z,1.44
2019-01-20T14:44:47.412Z,0.99
2019-01-20T14:47:19.172Z,2.16
2019-01-20T14:49:50.119Z,1.76
2019-01-20T14:52:20.806Z,0.89
2019-01-20T14:54:51.518Z,1.62
2019-01-20T14:57:21.374Z,1.09
2019-01-20T14:59:51.255Z,1.05
2019-01-20T15:02:22.395Z,0.45
2019-01-20T15:04:53.556Z,0.43
2019-01-20T15:07:25.010Z,0.93
2019-01-20T15:09:55.883Z,1.94
2019-01-20T15:12:26.670Z,2.12
2019-01-20T15:14:59.967Z,2.42
2019-01-20T15:17:31.392Z,1.49
2019-01-20T15:20:02.833Z,1.02
2019-01-20T15:22:32.956Z,1.59
2019-01-20T15:25:04.251Z,1.14
2019-01-20T15:27:35.154Z,1.14
2019-01-20T15:30:10.034Z,0.97
2019-01-20T15:32:41.343Z,0.82
2019-01-20T15:35:12.950Z,1.19
2019-01-20T15:37:43.436Z,1.41
2019-01-20T15:40:15.992Z,2.21
2019-01-20T15:42:49.304Z,2.03
2019-01-20T15:45:21.563Z,1.51
2019-01-20T15:47:53.520Z,1.85
2019-01-20T15:50:27.422Z,1.88
2019-01-20T15:52:58.959Z,1.82
2019-01-20T15:55:30.815Z,1.95
2019-01-20T15:58:01.762Z,0.80
2019-01-20T16:00:34.111Z,1.28
2019-01-20T16:03:05.899Z,1.69
2019-01-20T16:05:36.634Z,1.60
2019-01-20T16:08:08.321Z,1.92
2019-01-20T16:10:39.411Z,2.09
2019-01-20T16:13:09.299Z,2.35
2019-01-20T16:15:39.584Z,1.54
2019-01-20T16:18:14.205Z,1.76
2019-01-20T16:20:41.121Z,2.09
2019-01-20T16:23:11.451Z,1.27
2019-01-20T16:25:41.466Z,1.44
2019-01-20T16:28:12.774Z,0.90
2019-01-20T16:30:44.064Z,1.05
2019-01-20T16:33:14.363Z,1.24
2019-01-20T16:35:44.483Z,1.00
2019-01-20T16:38:14.443Z,1.25
2019-01-20T16:40:46.991Z,1.03
2019-01-20T16:43:16.929Z,0.93
2019-01-20T16:45:49.426Z,0.97
2019-01-20T16:48:19.996Z,0.83
2019-01-20T16:50:51.211Z,1.04
2019-01-20T16:53:21.240Z,1.16
2019-01-20T16:55:51.891Z,1.26
2019-01-20T16:58:24.367Z,1.34
2019-01-20T17:00:56.276Z,1.21
2019-01-20T17:03:27.752Z,1.65
2019-01-20T17:05:57.689Z,1.82
2019-01-20T17:08:27.562Z,1.93
2019-01-20T17:10:57.655Z,1.76
2019-01-20T17:13:27.516Z,1.19
2019-01-20T17:15:57.647Z,1.68
2019-01-20T17:18:27.739Z,2.01
2019-01-20T17:20:57.584Z,1.47
2019-01-20T17:23:27.489Z,1.63
2019-01-20T17:25:57.826Z,1.54
2019-01-20T17:28:27.699Z,1.78
2019-01-20T17:30:57.603Z,1.09
2019-01-20T17:33:27.672Z,1.51
2019-01-20T17:35:57.763Z,1.14
2019-01-20T17:38:27.804Z,1.09
2019-01-20T17:40:57.689Z,0.46
2019-01-20T17:43:27.560Z,1.22
2019-01-20T17:45:57.732Z,1.19
2019-01-20T17:48:27.675Z,1.78
2019-01-20T17:50:57.589Z,1.27
2019-01-20T17:53:27.471Z,1.10
2019-01-20T17:55:57.326Z,1.54
2019-01-20T17:58:27.384Z,1.72
2019-01-20T18:01:00.753Z,2.13
2019-01-20T18:03:30.636Z,1.44
2019-01-20T18:06:01.033Z,1.96
2019-01-20T18:08:30.926Z,1.46
2019-01-20T18:11:00.803Z,1.96
2019-01-20T18:13:30.698Z,1.52
2019-01-20T18:16:00.866Z,1.39
2019-01-20T18:18:30.728Z,1.77
2019-01-20T18:21:00.656Z,0.97
2019-01-20T18:23:31.092Z,1.42
2019-01-20T18:26:00.983Z,1.43
2019-01-20T18:28:30.857Z,1.30
2019-01-20T18:31:00.903Z,0.94
2019-01-20T18:33:30.853Z,1.19
2019-01-20T18:36:00.965Z,1.51
2019-01-20T18:38:31.057Z,1.74
2019-01-20T18:41:00.970Z,1.69
2019-01-20T18:43:30.930Z,1.95
2019-01-20T18:46:01.823Z,1.90
2019-01-20T18:48:32.003Z,1.68
2019-01-20T18:51:01.929Z,1.75
2019-01-20T18:53:31.802Z,1.93
2019-01-20T18:56:01.724Z,1.91
2019-01-20T18:58:31.617Z,1.66
2019-01-20T19:01:01.666Z,1.92
2019-01-20T19:03:31.969Z,2.09
2019-01-20T19:06:02.486Z,1.93
2019-01-20T19:08:32.485Z,2.10
2019-01-20T19:11:02.606Z,2.16
2019-01-20T19:13:32.479Z,2.14
2019-01-20T19:16:08.830Z,2.02
2019-01-20T19:18:34.504Z,1.56
2019-01-20T19:21:04.785Z,1.08
2019-01-20T19:23:34.899Z,1.63
2019-01-20T19:26:05.195Z,1.78
2019-01-20T19:28:35.084Z,1.47
2019-01-20T19:31:05.059Z,1.41
2019-01-20T19:33:35.169Z,1.40
2019-01-20T19:36:05.374Z,1.27
2019-01-20T19:38:35.336Z,1.41
2019-01-20T19:41:05.221Z,1.57
2019-01-20T19:43:35.173Z,1.08
2019-01-20T19:46:05.188Z,1.43
2019-01-20T19:48:35.311Z,1.49
2019-01-20T19:51:05.409Z,1.41
2019-01-20T19:53:35.306Z,1.22
2019-01-20T19:56:05.577Z,1.35
2019-01-20T19:58:35.468Z,1.66
2019-01-20T20:01:05.541Z,1.47
2019-01-20T20:03:35.657Z,1.31
2019-01-20T20:06:06.201Z,1.28
2019-01-20T20:08:36.110Z,1.40
2019-01-20T20:11:06.149Z,1.46
2019-01-20T20:13:36.053Z,1.56
2019-01-20T20:16:06.471Z,1.71
2019-01-20T20:18:36.339Z,1.78
2019-01-20T20:21:06.441Z,1.67
2019-01-20T20:23:36.596Z,0.57
2019-01-20T20:26:06.699Z,0.72
2019-01-20T20:28:36.560Z,1.33
2019-01-20T20:31:06.445Z,1.80
2019-01-20T20:33:36.305Z,1.97
2019-01-20T20:36:06.335Z,1.93
2019-01-20T20:38:36.222Z,1.88
2019-01-20T20:41:06.217Z,1.92
2019-01-20T20:43:36.094Z,1.93
2019-01-20T20:46:06.019Z,1.71
2019-01-20T20:48:35.878Z,0.90
2019-01-20T20:51:06.157Z,1.26
2019-01-20T20:53:36.273Z,0.83
2019-01-20T20:56:06.563Z,1.25
2019-01-20T20:58:36.518Z,1.56
2019-01-20T21:01:07.252Z,1.42
2019-01-20T21:03:39.418Z,1.53
2019-01-20T21:06:10.167Z,1.76
2019-01-20T21:08:40.567Z,1.62
2019-01-20T21:11:10.456Z,1.03
2019-01-20T21:13:41.001Z,0.87
2019-01-20T21:16:11.926Z,1.22
2019-01-20T21:18:42.396Z,0.78
2019-01-20T21:21:12.654Z,0.54
2019-01-20T21:23:42.593Z,1.20
2019-01-20T21:26:12.475Z,1.41
2019-01-20T21:28:42.417Z,1.35
2019-01-20T21:31:12.450Z,0.73
2019-01-20T21:33:42.754Z,1.24
2019-01-20T21:36:12.706Z,1.60
2019-01-20T21:38:42.611Z,1.82
2019-01-20T21:41:12.780Z,1.87
2019-01-20T21:43:42.894Z,1.92
2019-01-20T21:46:13.060Z,1.94
2019-01-20T21:48:43.365Z,1.94
2019-01-20T21:51:13.482Z,1.96
2019-01-20T21:53:43.656Z,1.99
2019-01-20T21:56:13.601Z,1.90
2019-01-20T21:58:43.488Z,1.97
2019-01-20T22:01:13.634Z,1.92
2019-01-20T22:03:43.602Z,1.71
2019-01-20T22:06:13.508Z,1.64
2019-01-20T22:08:43.616Z,1.67
2019-01-20T22:11:14.039Z,2.00
2019-01-20T22:13:44.329Z,1.99
2019-01-20T22:16:14.221Z,1.96
2019-01-20T22:18:44.790Z,2.14
2019-01-20T22:21:15.254Z,2.16
2019-01-20T22:23:45.312Z,1.92
2019-01-20T22:26:15.891Z,1.91
2019-01-20T22:28:46.153Z,1.69
2019-01-20T22:31:16.085Z,1.82
2019-01-20T22:33:45.990Z,2.01
2019-01-20T22:36:15.907Z,2.05
2019-01-20T22:38:46.174Z,1.89
2019-01-20T22:41:17.016Z,2.03
2019-01-20T22:43:47.707Z,1.97
2019-01-20T22:46:17.804Z,1.64
2019-01-20T22:48:48.055Z,1.85
2019-01-20T22:51:18.044Z,1.96
2019-01-20T22:53:48.452Z,1.99
2019-01-20T22:56:18.476Z,1.99
2019-01-20T22:58:49.020Z,2.06
2019-01-20T23:01:22.802Z,1.90
2019-01-20T23:03:53.137Z,1.64
2019-01-20T23:06:23.642Z,1.76
2019-01-20T23:08:54.396Z,1.54
2019-01-20T23:11:24.790Z,1.66
2019-01-20T23:13:56.070Z,1.80
2019-01-20T23:16:26.084Z,1.84
2019-01-20T23:18:55.986Z,1.93
2019-01-20T23:21:27.389Z,1.84
2019-01-20T23:23:59.948Z,1.56
2019-01-20T23:26:30.956Z,1.75
2019-01-20T23:29:01.851Z,1.51
2019-01-20T23:31:32.484Z,1.55
2019-01-20T23:34:02.573Z,1.03
2019-01-20T23:36:32.447Z,1.01
2019-01-20T23:39:02.596Z,1.32
2019-01-20T23:41:32.519Z,1.32
2019-01-20T23:44:03.726Z,1.60
2019-01-20T23:46:34.165Z,1.01
2019-01-20T23:49:06.655Z,1.50
2019-01-20T23:51:36.585Z,1.47
2019-01-20T23:54:07.786Z,1.84
2019-01-20T23:56:37.656Z,1.80
2019-01-20T23:59:07.708Z,1.71
